Detall de PIREP

Printer-friendly versionPDF version

[2013/06/11 07:56:00]
Flight IATA:CT2111
Pilot Number:041
Company ICAO:CAT
Aircraft Type:A320/E
PAX:98
Departing Airport: LEST
Destination Airport: LEVC
Alternate Airport:LEPA
Online: VATSIM
Route:FORNO UN733 ZMR UL155 KALMA UH100 CJN UN733 CLS
Flight Level:FL340
No Slew and time accel
No pause
Crash detect
Detect pilot in Cockpit between each 30 and 45 minutes
07:56 Zero fuel Weight: 134050 Lbs, Fuel Weight: 13029 Lbs
07:56 VATSIM:LEST 110730Z 19010KT 150V250 5000 -RADZ BR SCT003 BKN005 13/13 Q1019 TEMPO 1000 -RA BKN002
07:56 VATSIM:LEVC 110730Z VRB02KT CAVOK 26/13 Q1017 NOSIG
07:56 VOICE CATALONIAN
07:58 Parking Brakes off
08:04 Take-off
08:04 Take off Weight: 146377 Lbs
08:04 Wind: 205º @ 009 Knots Heading: 166º
08:04 POS N42º 53´ 28´´ W008º 24´ 48´´
08:04 Gear Up: 177 Knots
08:04 Flaps:3 at 177 Knots
08:04 Flaps:2 at 184 Knots
08:04 Flaps:1 at 185 Knots
08:05 Flaps:0 at 203 Knots
08:19 Wind:279º@042 Knots Heading: 126º Ground Speed: 493 Knots Altitude 30892 ft
08:21 TOC
08:21 Fuel Weight: 8194 Lb
08:34 Wind:298º@031 Knots Heading: 139º Ground Speed: 486 Knots Altitude 34245 ft
08:43 TOD
08:43 Fuel Weight: 6049 Lb
08:49 Wind:301º@033 Knots Heading: 105º Ground Speed: 423 Knots Altitude 27066 ft
09:04 Wind:313º@011 Knots Heading: 131º Ground Speed: 277 Knots Altitude 9940 ft
09:10 Flaps:1 at 208 Knots
09:11 Flaps:2 at 197 Knots
09:11 Flaps:4 at 175 Knots
09:11 Gear Down: 154 Knots
09:12 Flaps:5 at 145 Knots
09:14 TouchDown:Rate -159 ft/min Speed: 126 Knots
09:14 VATSIM:LEVC 110900Z 28010KT 240V320 CAVOK 29/10 Q1017 NOSIG
09:14 Land
09:14 Wind:263º@009 Knots
09:14 Heading: 292º
09:14 Flight Duration: 01:10
09:14 Landing Weight: 137734 Lbs
09:14 POS N39º 29´ 16´´ W000º 28´ 40´´
09:16 Parking brakes on
09:16Block to Block Duration: 01:18
09:16 Final Fuel: 3520 Lbls
09:16 Spent Fuel: 9508 Lbls
09:16 Flight Length: 458 NM
09:16 TOD Land Length: 163 NM

Exportar CSV

Powered by Drupal - Modified by Danger4k